sensor_id;sensor_type;location;lat;lon;timestamp;P1;durP1;ratioP1;P2;durP2;ratioP2
59418;SDS011;45224;50.904;6.038;2023-04-01T00:00:37;3.80;;;0.90;;
59418;SDS011;45224;50.904;6.038;2023-04-01T00:02:07;4.47;;;1.00;;
59418;SDS011;45224;50.904;6.038;2023-04-01T00:03:38;4.18;;;1.10;;
59418;SDS011;45224;50.904;6.038;2023-04-01T00:05:09;5.87;;;0.90;;
59418;SDS011;45224;50.904;6.038;2023-04-01T00:08:10;3.80;;;0.85;;
59418;SDS011;45224;50.904;6.038;2023-04-01T00:09:41;4.43;;;0.90;;
59418;SDS011;45224;50.904;6.038;2023-04-01T00:11:12;9.27;;;1.13;;
59418;SDS011;45224;50.904;6.038;2023-04-01T00:12:43;1.15;;;0.60;;
59418;SDS011;45224;50.904;6.038;2023-04-01T00:14:14;4.57;;;0.65;;
59418;SDS011;45224;50.904;6.038;2023-04-01T00:15:44;4.85;;;0.80;;
59418;SDS011;45224;50.904;6.038;2023-04-01T00:17:15;6.57;;;0.80;;
59418;SDS011;45224;50.904;6.038;2023-04-01T00:18:46;2.43;;;0.60;;
59418;SDS011;45224;50.904;6.038;2023-04-01T00:20:17;4.75;;;1.10;;
59418;SDS011;45224;50.904;6.038;2023-04-01T00:21:47;2.67;;;0.73;;
59418;SDS011;45224;50.904;6.038;2023-04-01T00:23:18;6.80;;;0.93;;
59418;SDS011;45224;50.904;6.038;2023-04-01T00:24:49;3.50;;;0.82;;
59418;SDS011;45224;50.904;6.038;2023-04-01T00:26:20;1.93;;;0.60;;
59418;SDS011;45224;50.904;6.038;2023-04-01T00:29:22;2.90;;;0.63;;
59418;SDS011;45224;50.904;6.038;2023-04-01T00:30:54;2.60;;;0.60;;
59418;SDS011;45224;50.904;6.038;2023-04-01T00:32:24;2.50;;;0.70;;
59418;SDS011;45224;50.904;6.038;2023-04-01T00:35:26;4.47;;;0.85;;
59418;SDS011;45224;50.904;6.038;2023-04-01T00:36:57;4.40;;;0.70;;
59418;SDS011;45224;50.904;6.038;2023-04-01T00:38:27;4.13;;;1.33;;
59418;SDS011;45224;50.904;6.038;2023-04-01T00:39:58;6.23;;;0.80;;
59418;SDS011;45224;50.904;6.038;2023-04-01T00:41:29;6.75;;;1.13;;
59418;SDS011;45224;50.904;6.038;2023-04-01T00:42:59;4.37;;;0.87;;
59418;SDS011;45224;50.904;6.038;2023-04-01T00:44:32;3.88;;;1.48;;
59418;SDS011;45224;50.904;6.038;2023-04-01T00:46:03;4.55;;;0.95;;
59418;SDS011;45224;50.904;6.038;2023-04-01T00:47:33;4.13;;;0.77;;
59418;SDS011;45224;50.904;6.038;2023-04-01T00:49:04;5.10;;;1.30;;
59418;SDS011;45224;50.904;6.038;2023-04-01T00:50:35;3.50;;;0.80;;
59418;SDS011;45224;50.904;6.038;2023-04-01T00:52:10;3.42;;;0.77;;
59418;SDS011;45224;50.904;6.038;2023-04-01T00:53:44;4.07;;;0.98;;
59418;SDS011;45224;50.904;6.038;2023-04-01T00:55:17;5.30;;;0.85;;
59418;SDS011;45224;50.904;6.038;2023-04-01T00:56:52;3.55;;;0.80;;
59418;SDS011;45224;50.904;6.038;2023-04-01T00:58:29;3.25;;;0.50;;
59418;SDS011;45224;50.904;6.038;2023-04-01T01:00:06;5.10;;;0.65;;
59418;SDS011;45224;50.904;6.038;2023-04-01T01:01:41;4.20;;;0.77;;
59418;SDS011;45224;50.904;6.038;2023-04-01T01:03:11;1.63;;;0.80;;
59418;SDS011;45224;50.904;6.038;2023-04-01T01:04:42;3.67;;;0.70;;
59418;SDS011;45224;50.904;6.038;2023-04-01T01:08:03;2.03;;;0.60;;
59418;SDS011;45224;50.904;6.038;2023-04-01T01:11:42;4.40;;;0.75;;
59418;SDS011;45224;50.904;6.038;2023-04-01T01:13:22;3.90;;;0.88;;
59418;SDS011;45224;50.904;6.038;2023-04-01T01:15:09;6.07;;;0.80;;
59418;SDS011;45224;50.904;6.038;2023-04-01T01:16:50;3.25;;;0.70;;
59418;SDS011;45224;50.904;6.038;2023-04-01T01:24:03;2.17;;;0.70;;
59418;SDS011;45224;50.904;6.038;2023-04-01T01:27:46;2.00;;;0.60;;
59418;SDS011;45224;50.904;6.038;2023-04-01T01:29:53;4.05;;;0.70;;
59418;SDS011;45224;50.904;6.038;2023-04-01T01:31:56;5.30;;;0.85;;
59418;SDS011;45224;50.904;6.038;2023-04-01T01:33:38;2.35;;;0.73;;
59418;SDS011;45224;50.904;6.038;2023-04-01T01:36:55;2.38;;;0.50;;
59418;SDS011;45224;50.904;6.038;2023-04-01T01:38:32;5.20;;;0.50;;
59418;SDS011;45224;50.904;6.038;2023-04-01T01:40:09;4.15;;;0.70;;
59418;SDS011;45224;50.904;6.038;2023-04-01T01:41:42;2.03;;;0.60;;
59418;SDS011;45224;50.904;6.038;2023-04-01T01:43:21;2.15;;;0.50;;
59418;SDS011;45224;50.904;6.038;2023-04-01T01:44:55;2.90;;;0.60;;
59418;SDS011;45224;50.904;6.038;2023-04-01T01:46:29;1.17;;;0.40;;
59418;SDS011;45224;50.904;6.038;2023-04-01T01:51:05;4.13;;;0.80;;
59418;SDS011;45224;50.904;6.038;2023-04-01T01:52:36;1.55;;;0.50;;
59418;SDS011;45224;50.904;6.038;2023-04-01T01:54:07;1.50;;;0.45;;
59418;SDS011;45224;50.904;6.038;2023-04-01T01:55:46;2.03;;;0.47;;
59418;SDS011;45224;50.904;6.038;2023-04-01T01:57:19;2.88;;;0.50;;
59418;SDS011;45224;50.904;6.038;2023-04-01T01:58:58;2.25;;;0.75;;
59418;SDS011;45224;50.904;6.038;2023-04-01T02:00:35;4.00;;;0.60;;
59418;SDS011;45224;50.904;6.038;2023-04-01T02:02:06;1.55;;;0.30;;
59418;SDS011;45224;50.904;6.038;2023-04-01T02:03:41;2.78;;;0.73;;
59418;SDS011;45224;50.904;6.038;2023-04-01T02:05:15;1.52;;;0.60;;
59418;SDS011;45224;50.904;6.038;2023-04-01T02:07:00;0.60;;;0.20;;
59418;SDS011;45224;50.904;6.038;2023-04-01T02:08:36;4.13;;;0.55;;
59418;SDS011;45224;50.904;6.038;2023-04-01T02:10:12;2.03;;;0.40;;
59418;SDS011;45224;50.904;6.038;2023-04-01T02:13:31;2.08;;;0.30;;
59418;SDS011;45224;50.904;6.038;2023-04-01T02:15:12;3.35;;;0.60;;
59418;SDS011;45224;50.904;6.038;2023-04-01T02:16:51;1.05;;;0.32;;
59418;SDS011;45224;50.904;6.038;2023-04-01T02:18:31;1.05;;;0.30;;
59418;SDS011;45224;50.904;6.038;2023-04-01T02:20:09;1.00;;;0.30;;
59418;SDS011;45224;50.904;6.038;2023-04-01T02:21:45;0.25;;;0.20;;
59418;SDS011;45224;50.904;6.038;2023-04-01T02:23:16;2.45;;;0.52;;
59418;SDS011;45224;50.904;6.038;2023-04-01T02:24:46;1.87;;;0.33;;
59418;SDS011;45224;50.904;6.038;2023-04-01T02:26:20;2.95;;;0.30;;
59418;SDS011;45224;50.904;6.038;2023-04-01T02:27:52;1.70;;;0.30;;
59418;SDS011;45224;50.904;6.038;2023-04-01T02:29:25;1.65;;;0.30;;
59418;SDS011;45224;50.904;6.038;2023-04-01T02:32:28;1.08;;;0.40;;
59418;SDS011;45224;50.904;6.038;2023-04-01T02:34:01;2.60;;;0.30;;
59418;SDS011;45224;50.904;6.038;2023-04-01T02:35:35;1.10;;;0.30;;
59418;SDS011;45224;50.904;6.038;2023-04-01T02:37:07;0.40;;;0.30;;
59418;SDS011;45224;50.904;6.038;2023-04-01T02:38:38;2.03;;;0.30;;
59418;SDS011;45224;50.904;6.038;2023-04-01T02:40:10;1.52;;;0.40;;
59418;SDS011;45224;50.904;6.038;2023-04-01T02:41:43;0.90;;;0.40;;
59418;SDS011;45224;50.904;6.038;2023-04-01T02:43:15;2.50;;;0.52;;
59418;SDS011;45224;50.904;6.038;2023-04-01T02:44:46;1.67;;;0.43;;
59418;SDS011;45224;50.904;6.038;2023-04-01T02:47:48;2.30;;;0.50;;
59418;SDS011;45224;50.904;6.038;2023-04-01T02:49:18;0.70;;;0.40;;
59418;SDS011;45224;50.904;6.038;2023-04-01T02:50:49;0.70;;;0.50;;
59418;SDS011;45224;50.904;6.038;2023-04-01T02:52:20;1.30;;;0.40;;
59418;SDS011;45224;50.904;6.038;2023-04-01T02:53:51;0.47;;;0.40;;
59418;SDS011;45224;50.904;6.038;2023-04-01T02:55:22;3.30;;;0.50;;
59418;SDS011;45224;50.904;6.038;2023-04-01T02:56:52;3.83;;;0.53;;
59418;SDS011;45224;50.904;6.038;2023-04-01T02:58:23;2.30;;;0.70;;
59418;SDS011;45224;50.904;6.038;2023-04-01T02:59:53;0.43;;;0.40;;
59418;SDS011;45224;50.904;6.038;2023-04-01T03:01:24;2.67;;;0.60;;
59418;SDS011;45224;50.904;6.038;2023-04-01T03:02:54;2.53;;;0.60;;
59418;SDS011;45224;50.904;6.038;2023-04-01T03:04:26;4.13;;;0.80;;
59418;SDS011;45224;50.904;6.038;2023-04-01T03:05:56;3.10;;;0.60;;
59418;SDS011;45224;50.904;6.038;2023-04-01T03:07:28;0.50;;;0.47;;
59418;SDS011;45224;50.904;6.038;2023-04-01T03:08:59;1.60;;;0.60;;
59418;SDS011;45224;50.904;6.038;2023-04-01T03:10:30;1.38;;;0.60;;
59418;SDS011;45224;50.904;6.038;2023-04-01T03:12:00;1.07;;;0.67;;
59418;SDS011;45224;50.904;6.038;2023-04-01T03:13:32;2.53;;;0.60;;
59418;SDS011;45224;50.904;6.038;2023-04-01T03:15:03;1.33;;;0.70;;
59418;SDS011;45224;50.904;6.038;2023-04-01T03:16:34;1.38;;;0.60;;
59418;SDS011;45224;50.904;6.038;2023-04-01T03:18:05;3.10;;;0.90;;
59418;SDS011;45224;50.904;6.038;2023-04-01T03:19:35;0.93;;;0.60;;
59418;SDS011;45224;50.904;6.038;2023-04-01T03:21:17;2.72;;;0.80;;
59418;SDS011;45224;50.904;6.038;2023-04-01T03:22:49;0.90;;;0.60;;
59418;SDS011;45224;50.904;6.038;2023-04-01T03:24:20;1.77;;;0.77;;
59418;SDS011;45224;50.904;6.038;2023-04-01T03:25:51;0.93;;;0.63;;
59418;SDS011;45224;50.904;6.038;2023-04-01T03:27:21;0.70;;;0.57;;
59418;SDS011;45224;50.904;6.038;2023-04-01T03:30:23;1.60;;;0.60;;
59418;SDS011;45224;50.904;6.038;2023-04-01T03:31:54;0.82;;;0.50;;
59418;SDS011;45224;50.904;6.038;2023-04-01T03:33:28;2.63;;;0.63;;
59418;SDS011;45224;50.904;6.038;2023-04-01T03:34:58;1.20;;;0.57;;
59418;SDS011;45224;50.904;6.038;2023-04-01T03:36:29;0.60;;;0.53;;
59418;SDS011;45224;50.904;6.038;2023-04-01T03:37:59;1.02;;;0.55;;
59418;SDS011;45224;50.904;6.038;2023-04-01T03:39:30;3.60;;;0.60;;
59418;SDS011;45224;50.904;6.038;2023-04-01T03:41:01;0.60;;;0.52;;
59418;SDS011;45224;50.904;6.038;2023-04-01T03:42:32;0.80;;;0.50;;
59418;SDS011;45224;50.904;6.038;2023-04-01T03:44:03;3.80;;;0.77;;
59418;SDS011;45224;50.904;6.038;2023-04-01T03:45:34;2.40;;;0.60;;
59418;SDS011;45224;50.904;6.038;2023-04-01T03:47:04;0.97;;;0.60;;
59418;SDS011;45224;50.904;6.038;2023-04-01T03:48:35;2.33;;;0.60;;
59418;SDS011;45224;50.904;6.038;2023-04-01T03:50:06;1.60;;;0.57;;
59418;SDS011;45224;50.904;6.038;2023-04-01T03:51:38;0.73;;;0.55;;
59418;SDS011;45224;50.904;6.038;2023-04-01T03:53:10;1.08;;;0.60;;
59418;SDS011;45224;50.904;6.038;2023-04-01T03:54:44;2.05;;;0.50;;
59418;SDS011;45224;50.904;6.038;2023-04-01T03:56:15;1.73;;;0.68;;
59418;SDS011;45224;50.904;6.038;2023-04-01T03:57:45;3.30;;;0.60;;
59418;SDS011;45224;50.904;6.038;2023-04-01T03:59:21;0.73;;;0.55;;
59418;SDS011;45224;50.904;6.038;2023-04-01T04:00:52;0.50;;;0.50;;
59418;SDS011;45224;50.904;6.038;2023-04-01T04:02:23;2.80;;;0.70;;
59418;SDS011;45224;50.904;6.038;2023-04-01T04:03:53;1.40;;;0.50;;
59418;SDS011;45224;50.904;6.038;2023-04-01T04:05:26;0.65;;;0.60;;
59418;SDS011;45224;50.904;6.038;2023-04-01T04:06:56;0.80;;;0.50;;
59418;SDS011;45224;50.904;6.038;2023-04-01T04:08:29;0.80;;;0.60;;
59418;SDS011;45224;50.904;6.038;2023-04-01T04:09:59;1.20;;;0.70;;
59418;SDS011;45224;50.904;6.038;2023-04-01T04:11:30;4.50;;;1.00;;
59418;SDS011;45224;50.904;6.038;2023-04-01T04:13:02;1.75;;;0.57;;
59418;SDS011;45224;50.904;6.038;2023-04-01T04:14:35;0.40;;;0.40;;
59418;SDS011;45224;50.904;6.038;2023-04-01T04:16:07;0.90;;;0.55;;
59418;SDS011;45224;50.904;6.038;2023-04-01T04:17:40;1.60;;;0.70;;
59418;SDS011;45224;50.904;6.038;2023-04-01T04:19:11;1.52;;;0.60;;
59418;SDS011;45224;50.904;6.038;2023-04-01T04:20:45;0.77;;;0.70;;
59418;SDS011;45224;50.904;6.038;2023-04-01T04:22:18;1.23;;;0.63;;
59418;SDS011;45224;50.904;6.038;2023-04-01T04:23:49;1.57;;;0.73;;
59418;SDS011;45224;50.904;6.038;2023-04-01T04:25:22;1.02;;;0.60;;
59418;SDS011;45224;50.904;6.038;2023-04-01T04:26:53;3.22;;;0.80;;
59418;SDS011;45224;50.904;6.038;2023-04-01T04:28:24;1.77;;;0.83;;
59418;SDS011;45224;50.904;6.038;2023-04-01T04:29:56;3.35;;;2.15;;
59418;SDS011;45224;50.904;6.038;2023-04-01T04:31:27;1.10;;;0.87;;
59418;SDS011;45224;50.904;6.038;2023-04-01T04:32:59;2.03;;;1.00;;
59418;SDS011;45224;50.904;6.038;2023-04-01T04:34:31;1.52;;;0.80;;
59418;SDS011;45224;50.904;6.038;2023-04-01T04:36:02;2.25;;;0.90;;
59418;SDS011;45224;50.904;6.038;2023-04-01T04:37:34;4.45;;;1.10;;
59418;SDS011;45224;50.904;6.038;2023-04-01T04:39:04;2.20;;;1.00;;
59418;SDS011;45224;50.904;6.038;2023-04-01T04:40:38;2.45;;;1.00;;
59418;SDS011;45224;50.904;6.038;2023-04-01T04:42:10;2.75;;;1.05;;
59418;SDS011;45224;50.904;6.038;2023-04-01T04:43:41;3.23;;;1.33;;
59418;SDS011;45224;50.904;6.038;2023-04-01T04:45:11;1.95;;;0.93;;
59418;SDS011;45224;50.904;6.038;2023-04-01T04:46:47;1.58;;;0.80;;
59418;SDS011;45224;50.904;6.038;2023-04-01T04:48:19;0.80;;;0.80;;
59418;SDS011;45224;50.904;6.038;2023-04-01T04:49:50;1.05;;;0.90;;
59418;SDS011;45224;50.904;6.038;2023-04-01T04:51:21;1.50;;;0.95;;
59418;SDS011;45224;50.904;6.038;2023-04-01T04:52:53;1.30;;;1.00;;
59418;SDS011;45224;50.904;6.038;2023-04-01T04:54:23;1.10;;;0.80;;
59418;SDS011;45224;50.904;6.038;2023-04-01T04:56:00;2.08;;;0.93;;
59418;SDS011;45224;50.904;6.038;2023-04-01T04:57:41;1.58;;;0.80;;
59418;SDS011;45224;50.904;6.038;2023-04-01T04:59:11;1.58;;;1.05;;
59418;SDS011;45224;50.904;6.038;2023-04-01T05:00:52;2.53;;;0.77;;
59418;SDS011;45224;50.904;6.038;2023-04-01T05:02:27;2.40;;;1.00;;
59418;SDS011;45224;50.904;6.038;2023-04-01T05:03:58;1.25;;;0.95;;
59418;SDS011;45224;50.904;6.038;2023-04-01T05:05:29;0.90;;;0.90;;
59418;SDS011;45224;50.904;6.038;2023-04-01T05:07:00;3.17;;;0.90;;
59418;SDS011;45224;50.904;6.038;2023-04-01T05:08:31;3.35;;;1.00;;
59418;SDS011;45224;50.904;6.038;2023-04-01T05:10:03;2.30;;;0.82;;
59418;SDS011;45224;50.904;6.038;2023-04-01T05:11:34;2.22;;;1.10;;
59418;SDS011;45224;50.904;6.038;2023-04-01T05:13:05;1.90;;;1.20;;
59418;SDS011;45224;50.904;6.038;2023-04-01T05:14:35;1.93;;;0.93;;
59418;SDS011;45224;50.904;6.038;2023-04-01T05:16:13;1.73;;;0.90;;
59418;SDS011;45224;50.904;6.038;2023-04-01T05:17:45;1.60;;;0.90;;
59418;SDS011;45224;50.904;6.038;2023-04-01T05:19:16;2.90;;;1.15;;
59418;SDS011;45224;50.904;6.038;2023-04-01T05:20:50;1.60;;;0.80;;
59418;SDS011;45224;50.904;6.038;2023-04-01T05:22:22;2.38;;;1.10;;
59418;SDS011;45224;50.904;6.038;2023-04-01T05:23:52;1.10;;;1.00;;
59418;SDS011;45224;50.904;6.038;2023-04-01T05:25:23;1.02;;;0.90;;
59418;SDS011;45224;50.904;6.038;2023-04-01T05:26:54;1.80;;;0.90;;
59418;SDS011;45224;50.904;6.038;2023-04-01T05:28:25;1.63;;;1.08;;
59418;SDS011;45224;50.904;6.038;2023-04-01T05:29:56;1.95;;;1.27;;
59418;SDS011;45224;50.904;6.038;2023-04-01T05:31:42;2.95;;;1.10;;
59418;SDS011;45224;50.904;6.038;2023-04-01T05:33:13;2.43;;;1.43;;
59418;SDS011;45224;50.904;6.038;2023-04-01T05:34:44;1.30;;;1.15;;
59418;SDS011;45224;50.904;6.038;2023-04-01T05:36:15;1.65;;;1.13;;
59418;SDS011;45224;50.904;6.038;2023-04-01T05:37:47;3.40;;;1.40;;
59418;SDS011;45224;50.904;6.038;2023-04-01T05:39:18;2.08;;;1.23;;
59418;SDS011;45224;50.904;6.038;2023-04-01T05:40:49;1.50;;;1.17;;
59418;SDS011;45224;50.904;6.038;2023-04-01T05:42:20;2.43;;;1.77;;
59418;SDS011;45224;50.904;6.038;2023-04-01T05:43:50;2.07;;;1.50;;
59418;SDS011;45224;50.904;6.038;2023-04-01T05:45:56;4.82;;;1.90;;
59418;SDS011;45224;50.904;6.038;2023-04-01T05:47:48;5.72;;;1.90;;
59418;SDS011;45224;50.904;6.038;2023-04-01T05:49:19;4.35;;;2.22;;
59418;SDS011;45224;50.904;6.038;2023-04-01T05:50:50;3.75;;;2.25;;
59418;SDS011;45224;50.904;6.038;2023-04-01T05:52:20;4.67;;;1.87;;
59418;SDS011;45224;50.904;6.038;2023-04-01T05:53:51;5.57;;;1.90;;
59418;SDS011;45224;50.904;6.038;2023-04-01T05:55:22;4.78;;;2.17;;
59418;SDS011;45224;50.904;6.038;2023-04-01T05:56:54;4.20;;;2.65;;
59418;SDS011;45224;50.904;6.038;2023-04-01T05:58:25;5.40;;;1.98;;
59418;SDS011;45224;50.904;6.038;2023-04-01T05:59:56;4.78;;;2.58;;
59418;SDS011;45224;50.904;6.038;2023-04-01T06:01:32;4.72;;;2.65;;
59418;SDS011;45224;50.904;6.038;2023-04-01T06:03:09;3.25;;;2.00;;
59418;SDS011;45224;50.904;6.038;2023-04-01T06:04:39;6.72;;;2.50;;
59418;SDS011;45224;50.904;6.038;2023-04-01T06:06:22;6.35;;;3.05;;
59418;SDS011;45224;50.904;6.038;2023-04-01T06:07:57;6.07;;;2.75;;
59418;SDS011;45224;50.904;6.038;2023-04-01T06:09:31;3.65;;;2.22;;
59418;SDS011;45224;50.904;6.038;2023-04-01T06:12:45;4.13;;;2.03;;
59418;SDS011;45224;50.904;6.038;2023-04-01T06:14:21;5.95;;;2.10;;
59418;SDS011;45224;50.904;6.038;2023-04-01T06:19:41;3.47;;;2.00;;
59418;SDS011;45224;50.904;6.038;2023-04-01T06:24:59;5.20;;;1.83;;
59418;SDS011;45224;50.904;6.038;2023-04-01T06:30:24;4.68;;;2.50;;
59418;SDS011;45224;50.904;6.038;2023-04-01T06:45:49;3.80;;;2.15;;
59418;SDS011;45224;50.904;6.038;2023-04-01T06:56:06;3.83;;;1.80;;
59418;SDS011;45224;50.904;6.038;2023-04-01T06:58:01;4.25;;;1.88;;
59418;SDS011;45224;50.904;6.038;2023-04-01T06:59:35;3.38;;;1.48;;
59418;SDS011;45224;50.904;6.038;2023-04-01T07:01:08;4.47;;;1.70;;
59418;SDS011;45224;50.904;6.038;2023-04-01T07:02:52;2.58;;;1.50;;
59418;SDS011;45224;50.904;6.038;2023-04-01T07:04:32;4.18;;;1.50;;
59418;SDS011;45224;50.904;6.038;2023-04-01T07:06:19;1.48;;;1.20;;
59418;SDS011;45224;50.904;6.038;2023-04-01T07:07:57;2.55;;;1.17;;
59418;SDS011;45224;50.904;6.038;2023-04-01T07:09:32;1.45;;;1.30;;
59418;SDS011;45224;50.904;6.038;2023-04-01T07:11:34;3.78;;;1.30;;
59418;SDS011;45224;50.904;6.038;2023-04-01T07:16:51;2.10;;;0.97;;
59418;SDS011;45224;50.904;6.038;2023-04-01T07:18:37;1.70;;;1.25;;
59418;SDS011;45224;50.904;6.038;2023-04-01T07:20:22;1.40;;;1.10;;
59418;SDS011;45224;50.904;6.038;2023-04-01T07:22:00;1.00;;;0.90;;
59418;SDS011;45224;50.904;6.038;2023-04-01T07:23:52;2.13;;;1.20;;
59418;SDS011;45224;50.904;6.038;2023-04-01T07:25:45;2.47;;;0.93;;
59418;SDS011;45224;50.904;6.038;2023-04-01T07:27:51;1.17;;;1.00;;
59418;SDS011;45224;50.904;6.038;2023-04-01T07:29:23;1.10;;;0.93;;
59418;SDS011;45224;50.904;6.038;2023-04-01T07:36:12;2.67;;;1.25;;
59418;SDS011;45224;50.904;6.038;2023-04-01T07:41:55;1.13;;;0.90;;
59418;SDS011;45224;50.904;6.038;2023-04-01T07:43:53;1.15;;;0.90;;
59418;SDS011;45224;50.904;6.038;2023-04-01T07:54:41;1.40;;;1.00;;
59418;SDS011;45224;50.904;6.038;2023-04-01T07:58:56;2.22;;;1.30;;
59418;SDS011;45224;50.904;6.038;2023-04-01T08:01:10;1.88;;;1.10;;
59418;SDS011;45224;50.904;6.038;2023-04-01T08:02:58;2.50;;;1.15;;
59418;SDS011;45224;50.904;6.038;2023-04-01T08:08:21;1.67;;;1.02;;
59418;SDS011;45224;50.904;6.038;2023-04-01T08:16:23;1.33;;;1.20;;
59418;SDS011;45224;50.904;6.038;2023-04-01T08:21:54;3.05;;;1.20;;
59418;SDS011;45224;50.904;6.038;2023-04-01T08:25:11;1.60;;;1.13;;
59418;SDS011;45224;50.904;6.038;2023-04-01T08:26:48;3.85;;;1.20;;
59418;SDS011;45224;50.904;6.038;2023-04-01T08:28:25;1.50;;;1.20;;
59418;SDS011;45224;50.904;6.038;2023-04-01T08:33:27;1.52;;;0.93;;
59418;SDS011;45224;50.904;6.038;2023-04-01T08:36:48;1.33;;;1.10;;
59418;SDS011;45224;50.904;6.038;2023-04-01T08:49:10;1.43;;;0.73;;
59418;SDS011;45224;50.904;6.038;2023-04-01T08:50:55;1.80;;;0.90;;
59418;SDS011;45224;50.904;6.038;2023-04-01T08:52:43;1.25;;;0.95;;
59418;SDS011;45224;50.904;6.038;2023-04-01T08:56:47;2.17;;;0.80;;
59418;SDS011;45224;50.904;6.038;2023-04-01T09:00:31;1.13;;;0.80;;
59418;SDS011;45224;50.904;6.038;2023-04-01T09:08:25;0.95;;;0.75;;
59418;SDS011;45224;50.904;6.038;2023-04-01T09:10:00;0.90;;;0.70;;
59418;SDS011;45224;50.904;6.038;2023-04-01T09:19:01;0.80;;;0.70;;
59418;SDS011;45224;50.904;6.038;2023-04-01T09:24:26;1.35;;;1.00;;
59418;SDS011;45224;50.904;6.038;2023-04-01T09:26:16;1.58;;;1.05;;
59418;SDS011;45224;50.904;6.038;2023-04-01T09:28:12;1.30;;;1.00;;
59418;SDS011;45224;50.904;6.038;2023-04-01T09:41:16;1.50;;;1.30;;
59418;SDS011;45224;50.904;6.038;2023-04-01T09:43:13;1.58;;;1.20;;
59418;SDS011;45224;50.904;6.038;2023-04-01T09:44:57;1.50;;;1.30;;
59418;SDS011;45224;50.904;6.038;2023-04-01T09:48:36;2.38;;;1.40;;
59418;SDS011;45224;50.904;6.038;2023-04-01T10:05:50;1.30;;;1.20;;
59418;SDS011;45224;50.904;6.038;2023-04-01T10:09:17;1.48;;;1.38;;
59418;SDS011;45224;50.904;6.038;2023-04-01T10:13:18;2.00;;;1.38;;
59418;SDS011;45224;50.904;6.038;2023-04-01T10:19:13;1.65;;;1.42;;
59418;SDS011;45224;50.904;6.038;2023-04-01T10:24:28;1.60;;;1.30;;
59418;SDS011;45224;50.904;6.038;2023-04-01T10:36:54;1.35;;;1.25;;
59418;SDS011;45224;50.904;6.038;2023-04-01T10:38:52;1.40;;;1.30;;
59418;SDS011;45224;50.904;6.038;2023-04-01T11:03:01;1.70;;;1.33;;
59418;SDS011;45224;50.904;6.038;2023-04-01T11:13:46;1.70;;;1.52;;
59418;SDS011;45224;50.904;6.038;2023-04-01T11:17:42;1.67;;;1.50;;
59418;SDS011;45224;50.904;6.038;2023-04-01T11:28:34;2.42;;;1.70;;
59418;SDS011;45224;50.904;6.038;2023-04-01T11:44:11;1.80;;;1.70;;
59418;SDS011;45224;50.904;6.038;2023-04-01T11:46:23;2.50;;;2.08;;
59418;SDS011;45224;50.904;6.038;2023-04-01T11:48:13;2.60;;;1.98;;
59418;SDS011;45224;50.904;6.038;2023-04-01T11:53:38;2.30;;;2.10;;
59418;SDS011;45224;50.904;6.038;2023-04-01T12:04:41;3.67;;;2.28;;
59418;SDS011;45224;50.904;6.038;2023-04-01T12:06:38;3.45;;;2.03;;
59418;SDS011;45224;50.904;6.038;2023-04-01T12:08:29;2.55;;;2.35;;
59418;SDS011;45224;50.904;6.038;2023-04-01T12:10:21;2.50;;;2.30;;
59418;SDS011;45224;50.904;6.038;2023-04-01T12:12:02;2.95;;;2.13;;
59418;SDS011;45224;50.904;6.038;2023-04-01T12:14:14;2.70;;;2.40;;
59418;SDS011;45224;50.904;6.038;2023-04-01T12:19:58;2.35;;;2.10;;
59418;SDS011;45224;50.904;6.038;2023-04-01T12:31:20;3.10;;;2.80;;
59418;SDS011;45224;50.904;6.038;2023-04-01T12:33:04;3.22;;;2.70;;
59418;SDS011;45224;50.904;6.038;2023-04-01T12:42:19;4.13;;;3.33;;
59418;SDS011;45224;50.904;6.038;2023-04-01T12:44:13;4.03;;;3.63;;
59418;SDS011;45224;50.904;6.038;2023-04-01T12:49:39;4.65;;;3.47;;
59418;SDS011;45224;50.904;6.038;2023-04-01T12:51:28;5.32;;;4.15;;
59418;SDS011;45224;50.904;6.038;2023-04-01T12:55:09;5.15;;;4.05;;
59418;SDS011;45224;50.904;6.038;2023-04-01T13:06:26;4.05;;;3.17;;
59418;SDS011;45224;50.904;6.038;2023-04-01T13:15:25;5.50;;;3.28;;
59418;SDS011;45224;50.904;6.038;2023-04-01T13:17:17;4.07;;;2.97;;
59418;SDS011;45224;50.904;6.038;2023-04-01T13:22:14;4.20;;;2.72;;
59418;SDS011;45224;50.904;6.038;2023-04-01T13:27:42;3.38;;;2.38;;
59418;SDS011;45224;50.904;6.038;2023-04-01T13:29:34;2.85;;;2.45;;
59418;SDS011;45224;50.904;6.038;2023-04-01T13:31:26;4.85;;;2.60;;
59418;SDS011;45224;50.904;6.038;2023-04-01T13:37:30;3.83;;;3.13;;
59418;SDS011;45224;50.904;6.038;2023-04-01T13:42:31;5.03;;;2.20;;
59418;SDS011;45224;50.904;6.038;2023-04-01T13:44:12;4.45;;;2.47;;
59418;SDS011;45224;50.904;6.038;2023-04-01T13:54:57;3.72;;;3.05;;
59418;SDS011;45224;50.904;6.038;2023-04-01T13:58:43;5.43;;;3.67;;
59418;SDS011;45224;50.904;6.038;2023-04-01T14:04:12;5.72;;;4.43;;
59418;SDS011;45224;50.904;6.038;2023-04-01T14:06:09;5.00;;;4.00;;
59418;SDS011;45224;50.904;6.038;2023-04-01T14:07:50;5.78;;;4.07;;
59418;SDS011;45224;50.904;6.038;2023-04-01T14:09:58;5.22;;;4.00;;
59418;SDS011;45224;50.904;6.038;2023-04-01T14:15:33;6.60;;;4.40;;
59418;SDS011;45224;50.904;6.038;2023-04-01T14:17:27;7.68;;;5.13;;
59418;SDS011;45224;50.904;6.038;2023-04-01T14:19:15;6.05;;;4.80;;
59418;SDS011;45224;50.904;6.038;2023-04-01T14:23:13;5.93;;;4.75;;
59418;SDS011;45224;50.904;6.038;2023-04-01T14:31:18;6.03;;;4.05;;
59418;SDS011;45224;50.904;6.038;2023-04-01T14:34:54;3.67;;;3.00;;
59418;SDS011;45224;50.904;6.038;2023-04-01T14:36:58;4.03;;;3.13;;
59418;SDS011;45224;50.904;6.038;2023-04-01T14:46:06;3.95;;;3.15;;
59418;SDS011;45224;50.904;6.038;2023-04-01T14:47:51;4.47;;;3.38;;
59418;SDS011;45224;50.904;6.038;2023-04-01T14:51:13;5.38;;;3.75;;
59418;SDS011;45224;50.904;6.038;2023-04-01T14:52:52;4.88;;;3.80;;
59418;SDS011;45224;50.904;6.038;2023-04-01T14:54:42;5.55;;;3.92;;
59418;SDS011;45224;50.904;6.038;2023-04-01T14:56:14;4.63;;;3.45;;
59418;SDS011;45224;50.904;6.038;2023-04-01T14:58:10;4.93;;;3.65;;
59418;SDS011;45224;50.904;6.038;2023-04-01T14:59:46;5.50;;;3.67;;
59418;SDS011;45224;50.904;6.038;2023-04-01T15:03:36;4.82;;;3.60;;
59418;SDS011;45224;50.904;6.038;2023-04-01T15:09:42;5.45;;;3.55;;
59418;SDS011;45224;50.904;6.038;2023-04-01T15:17:05;5.00;;;3.60;;
59418;SDS011;45224;50.904;6.038;2023-04-01T15:21:18;4.93;;;2.90;;
59418;SDS011;45224;50.904;6.038;2023-04-01T15:28:39;3.35;;;2.60;;
59418;SDS011;45224;50.904;6.038;2023-04-01T15:30:28;3.45;;;2.60;;
59418;SDS011;45224;50.904;6.038;2023-04-01T15:32:16;3.70;;;2.65;;
59418;SDS011;45224;50.904;6.038;2023-04-01T15:40:47;6.43;;;3.22;;
59418;SDS011;45224;50.904;6.038;2023-04-01T15:43:57;9.63;;;3.38;;
59418;SDS011;45224;50.904;6.038;2023-04-01T15:47:34;3.03;;;2.42;;
59418;SDS011;45224;50.904;6.038;2023-04-01T15:55:17;12.13;;;6.65;;
59418;SDS011;45224;50.904;6.038;2023-04-01T15:58:59;5.07;;;4.07;;
59418;SDS011;45224;50.904;6.038;2023-04-01T16:06:06;4.18;;;2.97;;
59418;SDS011;45224;50.904;6.038;2023-04-01T16:07:54;3.35;;;2.60;;
59418;SDS011;45224;50.904;6.038;2023-04-01T16:19:17;3.08;;;2.22;;
59418;SDS011;45224;50.904;6.038;2023-04-01T16:20:57;2.78;;;2.08;;
59418;SDS011;45224;50.904;6.038;2023-04-01T16:22:34;3.20;;;2.30;;
59418;SDS011;45224;50.904;6.038;2023-04-01T16:25:40;2.83;;;2.13;;
59418;SDS011;45224;50.904;6.038;2023-04-01T16:27:36;2.33;;;2.13;;
59418;SDS011;45224;50.904;6.038;2023-04-01T16:33:01;2.25;;;2.03;;
59418;SDS011;45224;50.904;6.038;2023-04-01T16:34:43;2.47;;;2.28;;
59418;SDS011;45224;50.904;6.038;2023-04-01T16:44:24;3.70;;;2.83;;
59418;SDS011;45224;50.904;6.038;2023-04-01T16:48:26;3.55;;;3.25;;
59418;SDS011;45224;50.904;6.038;2023-04-01T16:49:42;3.05;;;2.75;;
59418;SDS011;45224;50.904;6.038;2023-04-01T16:51:20;3.50;;;3.20;;
59418;SDS011;45224;50.904;6.038;2023-04-01T16:54:43;3.15;;;2.47;;
59418;SDS011;45224;50.904;6.038;2023-04-01T16:56:22;2.75;;;2.47;;